Time;durP1;ratioP1;P1;durP2;ratioP2;P2;SDS_P1;SDS_P2;PMS_P1;PMS_P2;Temp;Humidity;BMP_temperature;BMP_pressure;BME280_temperature;BME280_humidity;BME280_pressure;Samples;Min_cycle;Max_cycle;Signal;HPM_P1;HPM_P2
2022/06/14 04:08:14;;;;;;;3.33;3.03;;;12.10;99.90;;;;;;5014293;28;20749;-65
2022/06/14 04:10:48;;;;;;;4.72;3.38;;;12.10;99.90;;;;;;5015927;28;20502;-65
2022/06/14 04:14:02;;;;;;;4.72;3.50;;;12.30;99.90;;;;;;5013975;28;20213;-65
2022/06/14 04:16:53;;;;;;;3.17;2.97;;;12.60;99.90;;;;;;5005871;28;20227;-65
2022/06/14 04:19:38;;;;;;;3.43;3.20;;;12.90;99.90;;;;;;5015482;28;20182;-65
2022/06/14 04:22:25;;;;;;;3.23;3.03;;;13.10;99.90;;;;;;5015402;28;20442;-67
2022/06/14 04:25:04;;;;;;;5.23;3.43;;;13.30;99.90;;;;;;5012867;28;20531;-66
2022/06/14 04:27:54;;;;;;;3.13;2.93;;;13.40;99.90;;;;;;5014899;28;20971;-65
2022/06/14 04:30:40;;;;;;;3.13;2.93;;;13.50;99.90;;;;;;5014227;28;20424;-66
2022/06/14 04:33:31;;;;;;;3.10;2.90;;;13.50;99.90;;;;;;5013123;28;20552;-66
2022/06/14 04:36:06;;;;;;;3.33;3.10;;;13.60;99.90;;;;;;5015304;28;20420;-66
2022/06/14 04:38:45;;;;;;;4.07;2.67;;;13.80;99.90;;;;;;5012954;28;20431;-66
2022/06/14 04:41:33;;;;;;;2.83;2.63;;;13.90;99.90;;;;;;5014919;28;20431;-66
2022/06/14 04:44:14;;;;;;;3.63;3.33;;;14.00;99.90;;;;;;5006636;28;20818;-65
2022/06/14 04:46:45;;;;;;;3.73;3.33;;;14.10;99.90;;;;;;5014902;28;20482;-66
2022/06/14 04:49:32;;;;;;;2.63;2.43;;;14.30;99.90;;;;;;5012794;28;20425;-66
2022/06/14 04:52:12;;;;;;;5.40;3.03;;;14.50;99.90;;;;;;5015202;28;20824;-65
2022/06/14 04:54:50;;;;;;;2.90;2.70;;;14.70;99.90;;;;;;4986793;28;20469;-66
2022/06/14 04:57:39;;;;;;;3.63;3.37;;;14.70;99.90;;;;;;5014550;28;20409;-65
2022/06/14 05:00:16;;;;;;;3.40;3.20;;;14.70;99.90;;;;;;4995678;28;20465;-64
2022/06/14 05:02:46;;;;;;;3.50;3.20;;;14.60;99.90;;;;;;5001197;28;20424;-64
2022/06/14 05:05:21;;;;;;;3.13;2.83;;;14.60;99.90;;;;;;5013933;28;20438;-68
2022/06/14 05:07:53;;;;;;;3.33;3.10;;;14.70;99.90;;;;;;5014072;28;20437;-64
2022/06/14 05:10:25;;;;;;;4.23;3.80;;;14.80;99.90;;;;;;5014132;28;20480;-64
2022/06/14 05:13:15;;;;;;;5.00;3.57;;;14.80;99.90;;;;;;5014305;28;20520;-65
2022/06/14 05:15:49;;;;;;;5.83;3.40;;;15.10;99.90;;;;;;5011898;28;20425;-65
2022/06/14 05:18:57;;;;;;;3.53;2.90;;;15.30;99.90;;;;;;5013499;28;20464;-65
2022/06/14 05:21:49;;;;;;;5.90;3.33;;;15.60;99.90;;;;;;4997350;28;20471;-65
2022/06/14 05:24:16;;;;;;;3.43;3.20;;;15.70;99.90;;;;;;4995172;28;20453;-71
2022/06/14 05:27:03;;;;;;;2.93;2.73;;;15.80;99.90;;;;;;5014340;28;20402;-69
2022/06/14 05:29:41;;;;;;;3.40;3.10;;;15.80;99.90;;;;;;4995157;28;20819;-70
2022/06/14 05:32:25;;;;;;;3.77;3.50;;;15.90;99.90;;;;;;5011618;28;20437;-71
2022/06/14 05:35:44;;;;;;;2.77;2.57;;;16.00;99.90;;;;;;5013620;28;20436;-71
2022/06/14 05:38:22;;;;;;;5.63;3.90;;;16.10;99.90;;;;;;4932551;29;20451;-70
2022/06/14 05:41:10;;;;;;;4.20;3.80;;;16.30;99.90;;;;;;5002446;28;20431;-71
2022/06/14 05:43:55;;;;;;;3.50;3.20;;;16.50;99.90;;;;;;5012307;28;20433;-69
2022/06/14 05:46:26;;;;;;;4.10;3.50;;;16.70;99.90;;;;;;5012270;28;20542;-69
2022/06/14 05:49:03;;;;;;;6.13;3.90;;;16.60;99.90;;;;;;5012151;28;20401;-70
2022/06/14 05:51:59;;;;;;;3.87;3.47;;;16.70;99.90;;;;;;5008580;28;20444;-71
2022/06/14 05:54:33;;;;;;;4.53;3.20;;;16.80;99.90;;;;;;5007670;28;20553;-70
2022/06/14 05:57:14;;;;;;;4.20;3.60;;;16.90;99.90;;;;;;4994295;28;20408;-69
2022/06/14 05:59:58;;;;;;;4.00;3.60;;;17.10;99.90;;;;;;5003312;28;20440;-70
2022/06/14 06:02:45;;;;;;;6.50;3.37;;;17.10;99.90;;;;;;5011926;28;20794;-70
2022/06/14 06:05:26;;;;;;;4.43;4.10;;;17.10;99.90;;;;;;5012723;28;20429;-70
2022/06/14 06:08:22;;;;;;;4.20;3.90;;;17.20;99.90;;;;;;5010326;28;20913;-69
2022/06/14 06:10:53;;;;;;;6.33;3.80;;;17.20;99.90;;;;;;5013270;28;20768;-70
2022/06/14 06:13:27;;;;;;;4.23;3.60;;;17.40;99.90;;;;;;5011250;28;20988;-70
2022/06/14 06:16:01;;;;;;;4.00;3.70;;;17.50;99.90;;;;;;5012610;28;20423;-70
2022/06/14 06:18:38;;;;;;;6.63;3.60;;;17.50;99.90;;;;;;5009099;28;20447;-68
2022/06/14 06:21:33;;;;;;;5.40;4.00;;;17.40;99.90;;;;;;5012338;28;20421;-68
2022/06/14 06:24:08;;;;;;;4.10;3.53;;;17.40;99.90;;;;;;5008901;28;20585;-68
2022/06/14 06:26:37;;;;;;;5.63;3.40;;;17.40;99.90;;;;;;5011302;28;20436;-66
2022/06/14 06:29:16;;;;;;;6.77;4.50;;;17.50;99.90;;;;;;5006645;28;20445;-68
2022/06/14 06:31:44;;;;;;;3.93;3.63;;;17.60;99.90;;;;;;5010596;28;20502;-69
2022/06/14 06:34:13;;;;;;;3.97;3.03;;;17.70;99.90;;;;;;5009403;28;20482;-69
2022/06/14 06:36:47;;;;;;;3.33;3.10;;;17.80;99.90;;;;;;5010434;28;20798;-69
2022/06/14 06:39:13;;;;;;;3.40;3.07;;;17.90;99.90;;;;;;5012607;28;20470;-66
2022/06/14 06:41:49;;;;;;;3.57;3.10;;;18.00;99.90;;;;;;4994992;28;20460;-66
2022/06/14 06:44:29;;;;;;;3.63;3.20;;;18.10;99.90;;;;;;5011873;28;20231;-67
2022/06/14 06:47:13;;;;;;;3.60;3.30;;;18.10;99.90;;;;;;4999318;28;20453;-67
2022/06/14 06:50:01;;;;;;;2.90;2.70;;;18.20;99.90;;;;;;5006604;28;20437;-65
2022/06/14 06:52:52;;;;;;;3.60;3.20;;;18.40;99.80;;;;;;4973536;28;20445;-65
2022/06/14 06:55:47;;;;;;;3.40;3.10;;;18.70;99.00;;;;;;5008961;28;20437;-64
2022/06/14 06:58:29;;;;;;;3.67;3.37;;;19.00;98.40;;;;;;4995913;28;20441;-65
2022/06/14 07:01:10;;;;;;;5.73;4.03;;;19.20;98.40;;;;;;5011346;28;20772;-64
2022/06/14 07:03:49;;;;;;;3.67;3.20;;;19.10;96.70;;;;;;5004083;28;20463;-64
2022/06/14 07:06:28;;;;;;;3.77;3.43;;;19.20;97.80;;;;;;4997445;28;20422;-65
2022/06/14 07:09:00;;;;;;;4.47;3.07;;;19.50;96.90;;;;;;4999091;28;20463;-66
2022/06/14 07:11:50;;;;;;;4.37;3.17;;;19.70;96.70;;;;;;5001763;28;20467;-66
2022/06/14 07:14:24;;;;;;;3.70;3.43;;;19.90;95.90;;;;;;5015644;28;20469;-65
2022/06/14 07:17:10;;;;;;;3.43;2.87;;;19.90;96.00;;;;;;5016923;28;20503;-66
2022/06/14 07:19:40;;;;;;;3.60;3.30;;;20.00;95.40;;;;;;5015387;28;20743;-66
2022/06/14 07:22:24;;;;;;;4.10;3.30;;;20.00;95.20;;;;;;4996790;28;20414;-66
2022/06/14 07:25:02;;;;;;;3.10;2.90;;;20.10;94.40;;;;;;4997009;28;20513;-63
2022/06/14 07:27:46;;;;;;;3.20;2.77;;;20.30;94.70;;;;;;4993495;28;20437;-66
2022/06/14 07:30:12;;;;;;;4.37;3.10;;;20.70;94.30;;;;;;5016556;28;20485;-64
2022/06/14 07:32:46;;;;;;;3.30;3.00;;;21.30;93.50;;;;;;5015868;28;20398;-63
2022/06/14 07:35:16;;;;;;;4.20;3.10;;;22.10;93.60;;;;;;4997832;28;20192;-63
2022/06/14 07:37:44;;;;;;;3.50;3.20;;;22.90;91.30;;;;;;5016177;28;20743;-64
2022/06/14 07:40:37;;;;;;;4.00;3.03;;;24.00;89.40;;;;;;5016259;28;20735;-63
2022/06/14 07:43:06;;;;;;;3.23;2.93;;;25.20;88.50;;;;;;5008205;28;20393;-63
2022/06/14 07:45:32;;;;;;;3.43;3.23;;;26.70;81.70;;;;;;5009485;28;20894;-63
2022/06/14 07:48:02;;;;;;;3.43;3.23;;;27.90;78.80;;;;;;5015784;28;20420;-64
2022/06/14 07:50:48;;;;;;;3.97;3.67;;;29.20;74.40;;;;;;5012403;28;20434;-64
2022/06/14 07:53:25;;;;;;;3.67;3.37;;;30.10;66.40;;;;;;5012301;28;20452;-65
2022/06/14 07:56:01;;;;;;;10.00;8.17;;;30.80;64.50;;;;;;5014895;28;20448;-64
2022/06/14 07:58:32;;;;;;;3.67;3.33;;;31.40;61.40;;;;;;5014106;28;20417;-64
2022/06/14 08:01:09;;;;;;;4.77;4.40;;;32.20;59.60;;;;;;5015409;28;20440;-64
2022/06/14 08:03:49;;;;;;;4.10;3.53;;;32.70;57.30;;;;;;5012415;28;20461;-65
2022/06/14 08:06:21;;;;;;;6.37;3.60;;;33.30;56.40;;;;;;4995559;28;20441;-64
2022/06/14 08:08:51;;;;;;;4.60;3.93;;;33.70;55.70;;;;;;5009813;28;20445;-64
2022/06/14 08:11:28;;;;;;;4.17;3.87;;;34.00;54.00;;;;;;5014172;28;20429;-64
2022/06/14 08:14:00;;;;;;;3.87;3.57;;;34.20;53.60;;;;;;5014304;28;20556;-64
2022/06/14 08:16:27;;;;;;;3.63;3.33;;;34.10;52.20;;;;;;5008581;28;20441;-63
2022/06/14 08:19:03;;;;;;;4.00;3.53;;;34.20;51.40;;;;;;5013128;28;20520;-64
2022/06/14 08:21:38;;;;;;;3.93;3.63;;;34.00;51.60;;;;;;5014110;28;20753;-64
2022/06/14 08:24:13;;;;;;;3.20;3.00;;;33.90;51.50;;;;;;5012823;28;20476;-65
2022/06/14 08:27:11;;;;;;;4.30;4.00;;;33.90;52.10;;;;;;5013161;28;20437;-64
2022/06/14 08:29:48;;;;;;;4.00;3.60;;;34.20;51.90;;;;;;5002996;28;20981;-63
2022/06/14 08:32:27;;;;;;;4.37;4.07;;;34.20;51.40;;;;;;5014750;28;20819;-64
2022/06/14 08:35:06;;;;;;;3.47;3.17;;;34.40;50.40;;;;;;5014666;28;20461;-64
2022/06/14 08:37:36;;;;;;;3.60;3.40;;;34.70;50.60;;;;;;4997563;28;20919;-63
2022/06/14 08:40:29;;;;;;;3.43;3.20;;;35.10;50.20;;;;;;5015228;28;20402;-63
2022/06/14 08:43:00;;;;;;;3.73;3.43;;;35.30;48.70;;;;;;5014995;28;20410;-63
2022/06/14 08:45:45;;;;;;;3.20;3.00;;;35.40;48.90;;;;;;5014846;28;20476;-64
2022/06/14 08:48:35;;;;;;;3.77;3.37;;;35.50;47.60;;;;;;5014715;28;20465;-64
2022/06/14 08:51:12;;;;;;;3.43;3.23;;;35.50;47.60;;;;;;5013843;28;20943;-64
2022/06/14 08:53:57;;;;;;;3.90;3.60;;;35.30;47.70;;;;;;5014314;28;20465;-64
2022/06/14 08:56:40;;;;;;;3.90;3.60;;;35.20;48.60;;;;;;5015089;28;20785;-64
2022/06/14 08:59:37;;;;;;;6.57;3.60;;;35.40;47.70;;;;;;5014509;28;20437;-64
2022/06/14 09:02:30;;;;;;;4.37;3.97;;;35.40;47.30;;;;;;4987641;28;20942;-64
2022/06/14 09:05:33;;;;;;;3.57;3.27;;;35.10;46.50;;;;;;5014144;28;20499;-64
2022/06/14 09:08:19;;;;;;;4.33;4.03;;;35.00;47.40;;;;;;5014796;28;20752;-63
2022/06/14 09:10:59;;;;;;;4.03;3.73;;;35.10;47.10;;;;;;5015028;28;20398;-64
2022/06/14 09:14:12;;;;;;;3.97;3.40;;;35.40;46.70;;;;;;4994546;28;20489;-64
2022/06/14 09:16:59;;;;;;;3.60;3.30;;;35.80;46.00;;;;;;4986226;28;20447;-64
2022/06/14 09:19:36;;;;;;;3.70;3.50;;;35.90;45.20;;;;;;5005074;28;20418;-63
2022/06/14 09:22:09;;;;;;;3.30;3.10;;;35.70;43.90;;;;;;5014089;28;20759;-65
2022/06/14 09:24:53;;;;;;;5.20;2.90;;;35.50;44.30;;;;;;5014147;28;20547;-64
2022/06/14 09:27:32;;;;;;;3.20;3.00;;;35.90;44.20;;;;;;5012909;28;20410;-64
2022/06/14 09:30:20;;;;;;;3.57;3.23;;;36.10;44.40;;;;;;4994181;28;20399;-64
2022/06/14 09:36:08;;;;;;;3.20;2.90;;;36.20;43.50;;;;;;5011059;28;20491;-64
2022/06/14 09:39:01;;;;;;;2.73;2.50;;;36.60;41.80;;;;;;5006262;28;20931;-64
2022/06/14 09:41:52;;;;;;;3.93;3.60;;;36.70;41.40;;;;;;5000113;28;20422;-64
2022/06/14 09:44:20;;;;;;;2.67;2.47;;;36.70;41.90;;;;;;4978207;28;20442;-65
2022/06/14 09:47:08;;;;;;;2.83;2.63;;;37.10;42.30;;;;;;5013163;28;20410;-66
2022/06/14 09:49:55;;;;;;;3.20;3.00;;;37.60;41.70;;;;;;5011947;28;20479;-65
2022/06/14 09:52:26;;;;;;;3.70;2.97;;;37.80;39.60;;;;;;5013640;28;20444;-65
2022/06/14 09:55:01;;;;;;;2.23;2.13;;;37.50;39.20;;;;;;5012679;28;20557;-66
2022/06/14 09:58:13;;;;;;;3.23;2.63;;;37.30;39.40;;;;;;5013927;28;20416;-66
2022/06/14 10:00:56;;;;;;;3.33;2.83;;;37.00;39.80;;;;;;5014050;28;20406;-66
2022/06/14 10:04:02;;;;;;;2.40;2.30;;;36.70;39.30;;;;;;5013151;28;20457;-65
2022/06/14 10:06:37;;;;;;;2.60;2.40;;;36.70;39.20;;;;;;5013203;28;20437;-65
2022/06/14 10:09:24;;;;;;;2.80;2.60;;;37.20;39.10;;;;;;5013015;28;20425;-65
2022/06/14 10:11:58;;;;;;;3.13;3.00;;;37.60;38.70;;;;;;5013471;28;20836;-65
2022/06/14 10:14:47;;;;;;;2.53;2.37;;;37.60;37.60;;;;;;5012540;28;21050;-65
2022/06/14 10:17:38;;;;;;;2.80;2.60;;;36.80;37.90;;;;;;4995967;28;20434;-65
2022/06/14 10:20:41;;;;;;;2.80;2.53;;;36.20;38.30;;;;;;5013233;28;20426;-65
2022/06/14 10:23:31;;;;;;;2.40;2.30;;;35.60;39.80;;;;;;5013217;28;20463;-70
2022/06/14 10:29:34;;;;;;;2.70;2.60;;;35.60;39.90;;;;;;5000135;28;20804;-65
2022/06/14 10:32:37;;;;;;;3.13;2.67;;;36.10;39.00;;;;;;5013369;28;20464;-71
2022/06/14 10:35:15;;;;;;;2.87;2.67;;;36.20;38.40;;;;;;5013491;28;20483;-64
2022/06/14 10:38:15;;;;;;;2.30;2.20;;;36.20;38.40;;;;;;5013408;28;20412;-64
2022/06/14 10:40:45;;;;;;;2.97;2.63;;;35.60;39.20;;;;;;5016219;28;20463;-64
2022/06/14 10:43:31;;;;;;;3.37;2.70;;;35.30;38.70;;;;;;5016460;28;20974;-68
2022/06/14 10:46:04;;;;;;;3.20;2.90;;;35.20;39.90;;;;;;5017626;28;20408;-64
2022/06/14 10:48:46;;;;;;;2.83;2.63;;;35.30;41.80;;;;;;5017253;28;20437;-64
2022/06/14 10:51:20;;;;;;;2.60;2.40;;;35.00;41.60;;;;;;5017368;28;20800;-64
2022/06/14 10:53:50;;;;;;;2.50;2.30;;;34.30;40.70;;;;;;5016823;28;20519;-64
2022/06/14 10:56:21;;;;;;;4.50;2.90;;;34.10;41.10;;;;;;5017220;28;20407;-64
2022/06/14 10:59:34;;;;;;;3.10;2.80;;;34.00;42.20;;;;;;5014688;28;20417;-63
2022/06/14 11:02:09;;;;;;;3.10;2.87;;;34.10;42.90;;;;;;4927978;28;20438;-67
2022/06/14 11:04:47;;;;;;;2.40;2.20;;;34.00;41.80;;;;;;5016834;28;20415;-64
2022/06/14 11:07:25;;;;;;;3.00;2.70;;;33.70;41.80;;;;;;5016372;28;20572;-64
2022/06/14 11:10:28;;;;;;;2.70;2.50;;;33.30;41.90;;;;;;5016911;28;20405;-64
2022/06/14 11:13:03;;;;;;;3.37;2.43;;;32.90;40.70;;;;;;5016720;28;20380;-64
2022/06/14 11:15:47;;;;;;;3.97;2.90;;;32.20;41.80;;;;;;5016034;28;20893;-64
2022/06/14 11:20:45;;;;;;;3.10;2.90;;;30.70;43.70;;;;;;5071308;27;20596;-62
2022/06/14 11:23:18;;;;;;;2.50;2.10;;;29.90;44.80;;;;;;5030305;28;20475;-62
2022/06/14 11:26:06;;;;;;;2.90;2.80;;;29.10;45.60;;;;;;5030421;28;20382;-63
2022/06/14 11:29:02;;;;;;;2.90;2.70;;;28.30;46.30;;;;;;5047503;28;20390;-63
2022/06/14 11:31:39;;;;;;;2.93;2.20;;;27.70;47.60;;;;;;5048484;28;20401;-63
2022/06/14 11:34:10;;;;;;;2.50;2.30;;;27.00;48.40;;;;;;5046124;28;20450;-62
2022/06/14 11:36:44;;;;;;;2.90;2.60;;;26.70;48.80;;;;;;5039344;28;20486;-62
2022/06/14 11:39:27;;;;;;;4.60;2.27;;;26.30;50.20;;;;;;5050268;28;20457;-62
2022/06/14 11:41:53;;;;;;;2.90;2.20;;;26.10;50.80;;;;;;5050655;28;20408;-64
2022/06/14 11:44:44;;;;;;;2.70;2.50;;;26.00;49.60;;;;;;5049530;28;20428;-63
2022/06/14 11:47:17;;;;;;;4.50;2.40;;;25.80;50.20;;;;;;5047673;28;20410;-64
2022/06/14 11:50:00;;;;;;;2.70;2.50;;;25.60;48.70;;;;;;5042940;28;20435;-66
2022/06/14 11:52:43;;;;;;;2.20;2.10;;;25.50;49.60;;;;;;5049372;28;20398;-64
2022/06/14 11:55:26;;;;;;;2.47;2.30;;;25.30;51.30;;;;;;5049736;28;20431;-64
2022/06/14 11:58:05;;;;;;;2.33;2.23;;;25.20;50.50;;;;;;5048631;28;20427;-64
2022/06/14 12:00:49;;;;;;;2.27;2.00;;;25.10;50.30;;;;;;5049742;28;20390;-63
2022/06/14 12:03:52;;;;;;;2.60;2.40;;;25.00;50.50;;;;;;5049794;28;20448;-63
2022/06/14 12:06:33;;;;;;;2.73;2.53;;;25.00;51.10;;;;;;5030664;28;20432;-62
2022/06/14 12:09:27;;;;;;;2.53;2.33;;;25.10;51.00;;;;;;5030106;28;20478;-63
2022/06/14 12:12:19;;;;;;;2.60;2.40;;;25.20;50.40;;;;;;5041708;28;20464;-64
2022/06/14 12:15:07;;;;;;;2.80;2.60;;;25.20;51.80;;;;;;5049898;28;20502;-63
2022/06/14 12:17:42;;;;;;;2.27;2.17;;;25.20;51.30;;;;;;5049665;28;20396;-64
2022/06/14 12:20:13;;;;;;;2.30;2.10;;;25.20;51.10;;;;;;5049401;28;20402;-64
2022/06/14 12:23:08;;;;;;;2.70;2.50;;;25.10;50.60;;;;;;5049073;28;20434;-64
2022/06/14 12:28:41;;;;;;;3.20;3.00;;;25.10;50.70;;;;;;5039374;28;20397;-64
2022/06/14 12:31:23;;;;;;;2.93;2.60;;;25.10;51.50;;;;;;5037129;28;20459;-64
2022/06/14 12:33:53;;;;;;;2.50;2.40;;;25.10;51.30;;;;;;5035423;28;20419;-62
2022/06/14 12:36:40;;;;;;;2.53;2.33;;;25.10;51.70;;;;;;5035879;28;20789;-64
2022/06/14 12:39:13;;;;;;;2.53;2.20;;;25.20;51.20;;;;;;5036027;28;20419;-63
2022/06/14 12:41:56;;;;;;;2.50;2.30;;;25.20;51.60;;;;;;5034622;28;20372;-67
2022/06/14 12:44:41;;;;;;;2.40;2.13;;;25.30;51.50;;;;;;5015269;28;20429;-68
2022/06/14 12:47:16;;;;;;;2.60;2.40;;;25.40;53.20;;;;;;5035694;28;20900;-64
2022/06/14 12:49:46;;;;;;;2.60;2.40;;;25.60;53.70;;;;;;5035932;28;20745;-63
2022/06/14 12:52:26;;;;;;;2.40;2.20;;;25.70;51.80;;;;;;5035636;28;20383;-63
2022/06/14 12:54:59;;;;;;;2.03;1.93;;;25.70;50.90;;;;;;5033719;28;20446;-63
2022/06/14 12:57:53;;;;;;;2.60;2.50;;;25.80;51.30;;;;;;5020422;28;20914;-63
2022/06/14 13:00:50;;;;;;;4.63;2.10;;;25.70;51.90;;;;;;5034290;28;20447;-64
2022/06/14 13:03:40;;;;;;;2.97;2.77;;;25.70;51.50;;;;;;5034568;28;20531;-62
2022/06/14 13:06:34;;;;;;;2.23;2.13;;;25.60;51.30;;;;;;5033427;28;20411;-63
2022/06/14 13:09:19;;;;;;;2.90;2.50;;;25.60;51.50;;;;;;5034273;28;20432;-65
2022/06/14 13:12:02;;;;;;;2.10;2.00;;;25.50;51.50;;;;;;5034487;28;20425;-66
2022/06/14 13:14:31;;;;;;;1.83;1.73;;;25.50;50.70;;;;;;5033868;28;20978;-64
2022/06/14 13:17:26;;;;;;;2.80;2.60;;;25.40;51.70;;;;;;5034963;28;20399;-65
2022/06/14 13:20:05;;;;;;;2.67;2.47;;;25.40;51.30;;;;;;5035075;28;20443;-65
2022/06/14 13:22:49;;;;;;;2.60;2.40;;;25.40;51.50;;;;;;5034777;28;20441;-65
2022/06/14 13:25:47;;;;;;;2.20;2.07;;;25.40;51.60;;;;;;5035137;28;20396;-71
2022/06/14 13:28:24;;;;;;;2.40;2.20;;;25.50;53.30;;;;;;5033902;28;20415;-70
2022/06/14 13:31:12;;;;;;;2.90;2.60;;;25.50;53.40;;;;;;5032666;28;20463;-75
2022/06/14 13:34:00;;;;;;;3.80;2.40;;;25.60;53.30;;;;;;5026723;28;20435;-68
2022/06/14 13:36:46;;;;;;;4.00;2.30;;;25.60;53.30;;;;;;5033501;28;20523;-68
2022/06/14 13:39:37;;;;;;;2.40;2.23;;;25.70;52.10;;;;;;4993345;28;20476;-68
2022/06/14 13:42:20;;;;;;;3.10;2.80;;;25.70;52.50;;;;;;5012585;28;20933;-67
2022/06/14 13:45:11;;;;;;;2.30;2.13;;;25.70;52.60;;;;;;5028922;28;20435;-68
2022/06/14 13:47:45;;;;;;;3.10;2.47;;;25.70;53.30;;;;;;5033747;28;20491;-67
2022/06/14 13:50:22;;;;;;;2.83;2.20;;;25.60;52.50;;;;;;5034004;28;20504;-66
2022/06/14 13:53:00;;;;;;;2.23;2.10;;;25.60;52.50;;;;;;5034119;28;20468;-65
2022/06/14 13:55:53;;;;;;;2.87;2.67;;;25.60;53.10;;;;;;5034500;28;20401;-66
2022/06/14 13:58:21;;;;;;;2.50;2.30;;;25.50;53.20;;;;;;5033973;28;20427;-66
2022/06/14 14:01:02;;;;;;;3.07;2.77;;;25.50;52.70;;;;;;5034219;28;20429;-66
2022/06/14 14:03:40;;;;;;;7.73;2.60;;;25.50;52.90;;;;;;5033584;28;20417;-67
2022/06/14 14:06:29;;;;;;;2.83;2.50;;;25.60;52.60;;;;;;5034241;28;20397;-68
2022/06/14 14:09:13;;;;;;;2.53;2.30;;;25.60;51.90;;;;;;5033917;28;20392;-66
2022/06/14 14:11:47;;;;;;;2.33;2.10;;;25.70;51.80;;;;;;5033635;28;20456;-65
2022/06/14 14:14:38;;;;;;;2.37;2.27;;;25.70;52.00;;;;;;5033287;28;20415;-66
2022/06/14 14:17:04;;;;;;;2.47;2.07;;;25.70;51.30;;;;;;5034219;28;20699;-66
2022/06/14 14:19:50;;;;;;;3.37;2.87;;;25.70;52.10;;;;;;5033951;28;20477;-66
2022/06/14 14:22:19;;;;;;;2.40;2.27;;;25.80;52.90;;;;;;5033630;28;20629;-67
2022/06/14 14:24:56;;;;;;;3.40;2.63;;;25.80;52.70;;;;;;5033268;28;20527;-68
2022/06/14 14:27:33;;;;;;;3.07;2.57;;;25.80;52.90;;;;;;5012114;28;20493;-68
2022/06/14 14:30:11;;;;;;;2.97;2.73;;;25.90;53.00;;;;;;5011909;28;20391;-67
2022/06/14 14:32:46;;;;;;;2.97;2.77;;;26.00;53.50;;;;;;5011688;28;20480;-67
2022/06/14 14:35:36;;;;;;;2.90;2.60;;;26.00;53.10;;;;;;5011991;28;20958;-67
2022/06/14 14:38:18;;;;;;;4.40;2.30;;;26.00;53.50;;;;;;5011797;28;20402;-68
2022/06/14 14:43:37;;;;;;;2.40;2.30;;;26.00;53.70;;;;;;5033487;28;20411;-66
2022/06/14 14:46:12;;;;;;;3.10;2.60;;;25.90;54.00;;;;;;5033746;28;20379;-67
2022/06/14 14:48:48;;;;;;;2.30;2.20;;;26.00;53.90;;;;;;5033518;28;20411;-65
2022/06/14 14:51:23;;;;;;;2.83;2.63;;;26.00;53.70;;;;;;5032047;28;20409;-66
2022/06/14 14:54:12;;;;;;;3.30;3.00;;;25.90;53.30;;;;;;5032823;28;20423;-66
2022/06/14 14:56:45;;;;;;;2.63;2.50;;;25.90;53.30;;;;;;4984472;28;20708;-67
2022/06/14 14:59:33;;;;;;;3.70;2.40;;;25.90;54.20;;;;;;5013684;28;20783;-67
2022/06/14 15:07:53;;;;;;;2.77;2.67;;;26.00;54.10;;;;;;5013490;28;20420;-67
2022/06/14 15:10:25;;;;;;;2.90;2.63;;;25.90;53.50;;;;;;5025224;28;20952;-65
2022/06/14 15:12:56;;;;;;;2.47;2.27;;;25.90;53.50;;;;;;5032914;28;20383;-67
2022/06/14 15:15:31;;;;;;;2.20;2.10;;;25.90;53.70;;;;;;5033346;28;20376;-65
2022/06/14 15:21:00;;;;;;;2.63;2.43;;;25.80;53.80;;;;;;5032959;28;20390;-66
2022/06/14 15:23:30;;;;;;;3.33;2.97;;;25.90;54.30;;;;;;5032534;28;20421;-66
2022/06/14 15:25:59;;;;;;;3.53;2.60;;;25.90;54.40;;;;;;5032626;28;20881;-66
2022/06/14 15:28:44;;;;;;;3.13;2.30;;;25.90;54.60;;;;;;5033028;28;20413;-65
2022/06/14 15:31:29;;;;;;;2.30;2.20;;;25.90;55.10;;;;;;5032899;28;20391;-66
2022/06/14 15:34:03;;;;;;;3.17;2.97;;;25.90;54.30;;;;;;5032289;28;20486;-66
2022/06/14 15:36:33;;;;;;;3.10;2.53;;;25.90;54.50;;;;;;5032878;28;20409;-66
2022/06/14 15:39:14;;;;;;;3.00;2.63;;;25.90;54.90;;;;;;5032401;28;20839;-65
2022/06/14 15:41:39;;;;;;;8.90;2.93;;;25.90;54.90;;;;;;5032737;28;20930;-67
2022/06/14 15:44:15;;;;;;;2.60;2.40;;;25.90;55.00;;;;;;5032404;28;20404;-68
2022/06/14 15:47:04;;;;;;;2.10;2.00;;;25.90;55.30;;;;;;5032686;28;20532;-65
2022/06/14 15:49:38;;;;;;;2.73;2.53;;;25.90;55.20;;;;;;5030567;28;20922;-67
2022/06/14 15:52:31;;;;;;;2.80;2.60;;;25.90;55.10;;;;;;5032680;28;20489;-69
2022/06/14 15:55:14;;;;;;;2.80;2.60;;;25.90;55.60;;;;;;5032128;28;20480;-66
2022/06/14 15:57:53;;;;;;;3.13;2.83;;;25.90;55.40;;;;;;5032750;28;20401;-67
2022/06/14 16:00:29;;;;;;;3.70;2.70;;;25.80;55.60;;;;;;5032959;28;20383;-65
2022/06/14 16:03:00;;;;;;;2.73;2.53;;;25.90;56.10;;;;;;5032238;28;20451;-65
2022/06/14 16:05:29;;;;;;;3.80;3.53;;;25.90;56.20;;;;;;5034059;28;20721;-65
2022/06/14 16:08:03;;;;;;;2.63;2.53;;;26.00;55.60;;;;;;5036512;28;20474;-66
2022/06/14 16:10:39;;;;;;;2.30;2.20;;;25.90;55.60;;;;;;5036672;28;20404;-66
2022/06/14 16:13:10;;;;;;;2.80;2.60;;;25.90;55.90;;;;;;5036117;28;20416;-66
2022/06/14 16:15:38;;;;;;;2.97;2.77;;;26.00;55.80;;;;;;5036258;28;20800;-66
2022/06/14 16:18:27;;;;;;;1.83;1.73;;;26.00;55.40;;;;;;5036084;28;20424;-66
2022/06/14 16:21:03;;;;;;;2.97;2.70;;;26.00;55.20;;;;;;5036676;28;20503;-66
2022/06/14 16:23:31;;;;;;;2.73;2.53;;;26.00;55.40;;;;;;5035169;28;20462;-65
2022/06/14 16:26:01;;;;;;;2.87;2.60;;;25.90;55.00;;;;;;5036376;28;20412;-67
2022/06/14 16:29:01;;;;;;;2.97;2.67;;;25.90;55.30;;;;;;5036377;28;20443;-66
2022/06/14 16:31:35;;;;;;;3.17;2.97;;;25.80;55.50;;;;;;5035906;28;20413;-65
2022/06/14 16:34:18;;;;;;;3.67;2.80;;;25.80;55.80;;;;;;5035725;28;20419;-67
2022/06/14 16:36:52;;;;;;;2.50;2.37;;;25.70;56.10;;;;;;5036141;28;20495;-66
2022/06/14 16:39:46;;;;;;;3.27;2.97;;;25.70;56.50;;;;;;5035971;28;20530;-67
2022/06/14 16:42:34;;;;;;;2.77;2.50;;;25.70;56.30;;;;;;5008578;28;20479;-65
2022/06/14 16:45:32;;;;;;;2.77;2.57;;;25.60;56.20;;;;;;5035378;28;20447;-65
2022/06/14 16:48:13;;;;;;;2.33;2.13;;;25.60;56.20;;;;;;5035416;28;20411;-66
2022/06/14 16:50:42;;;;;;;5.23;2.33;;;25.60;56.20;;;;;;5034417;28;20412;-65
2022/06/14 16:53:31;;;;;;;5.27;2.97;;;25.70;56.60;;;;;;5035010;28;20408;-66
2022/06/14 16:56:06;;;;;;;2.57;2.33;;;25.60;57.00;;;;;;5014502;28;20380;-66
2022/06/14 16:59:01;;;;;;;3.30;3.10;;;25.70;56.80;;;;;;5015473;28;20474;-66
2022/06/14 17:01:26;;;;;;;2.60;2.50;;;25.70;56.30;;;;;;5015820;28;20408;-66
2022/06/14 17:04:13;;;;;;;2.10;2.00;;;25.70;55.90;;;;;;5015354;28;20400;-65
2022/06/14 17:07:03;;;;;;;2.60;2.50;;;25.70;56.10;;;;;;5015687;28;20561;-68
2022/06/14 17:09:58;;;;;;;2.63;2.43;;;25.60;55.80;;;;;;5015836;28;20398;-68
2022/06/14 17:12:38;;;;;;;5.90;2.77;;;25.60;56.40;;;;;;5028834;28;20448;-68
2022/06/14 17:15:25;;;;;;;2.70;2.50;;;25.50;56.40;;;;;;5032642;28;20502;-72
2022/06/14 17:18:07;;;;;;;3.70;3.10;;;25.40;56.60;;;;;;5033593;28;20806;-70
2022/06/14 17:20:47;;;;;;;2.63;2.43;;;25.40;56.60;;;;;;5031318;28;20905;-69
2022/06/14 17:23:28;;;;;;;2.73;2.53;;;25.30;56.80;;;;;;5030981;28;20391;-70
2022/06/14 17:31:49;;;;;;;2.90;2.60;;;25.20;54.60;;;;;;5033200;28;20470;-69
2022/06/14 17:34:32;;;;;;;2.50;2.30;;;25.10;54.90;;;;;;5034503;28;20953;-69
2022/06/14 17:37:07;;;;;;;2.93;2.73;;;25.10;55.40;;;;;;5035042;28;20409;-67
2022/06/14 17:40:02;;;;;;;2.93;2.33;;;25.10;56.00;;;;;;5033851;28;20853;-71
2022/06/14 17:42:33;;;;;;;3.07;2.80;;;25.10;56.50;;;;;;5034071;28;20399;-70
2022/06/14 17:45:06;;;;;;;4.60;2.50;;;25.10;57.00;;;;;;5034086;28;20436;-71
2022/06/14 17:47:43;;;;;;;2.97;2.87;;;25.10;57.40;;;;;;5034130;28;20391;-68
2022/06/14 17:50:26;;;;;;;2.77;2.53;;;25.10;57.80;;;;;;5034146;28;20443;-73
2022/06/14 17:53:24;;;;;;;2.63;2.43;;;25.10;58.00;;;;;;5032494;28;20419;-70
2022/06/14 17:56:03;;;;;;;5.63;2.10;;;25.00;58.30;;;;;;5032871;28;20409;-73
2022/06/14 17:59:13;;;;;;;2.20;2.10;;;25.00;58.40;;;;;;5032468;28;20468;-65
2022/06/14 18:01:51;;;;;;;2.90;2.60;;;24.90;58.40;;;;;;5034529;28;20393;-69
2022/06/14 18:04:17;;;;;;;3.10;2.90;;;24.90;58.70;;;;;;5034037;28;20391;-68
2022/06/14 18:06:57;;;;;;;6.20;3.33;;;24.80;59.10;;;;;;5033929;28;20390;-68
2022/06/14 18:09:47;;;;;;;3.63;3.33;;;24.80;59.30;;;;;;5034550;28;20511;-67
2022/06/14 18:12:16;;;;;;;3.73;3.07;;;24.80;60.00;;;;;;5033268;28;20571;-66
2022/06/14 18:14:48;;;;;;;3.40;3.20;;;24.80;60.30;;;;;;5033772;28;20408;-65
2022/06/14 18:17:37;;;;;;;3.10;2.67;;;24.70;60.60;;;;;;5034340;28;20804;-67
2022/06/14 18:23:22;;;;;;;3.47;3.13;;;24.60;61.30;;;;;;5033390;28;20984;-68
2022/06/14 18:25:53;;;;;;;3.17;2.97;;;24.50;61.00;;;;;;5030202;28;20425;-68
2022/06/14 18:28:30;;;;;;;2.97;2.73;;;24.40;61.30;;;;;;5033107;28;20838;-67
2022/06/14 18:31:01;;;;;;;2.63;2.43;;;24.40;61.60;;;;;;5033388;28;20434;-70
2022/06/14 18:33:31;;;;;;;2.10;2.00;;;24.30;61.70;;;;;;5031654;28;20480;-66
2022/06/14 18:36:04;;;;;;;2.73;2.37;;;24.30;62.80;;;;;;5033635;28;20790;-66
2022/06/14 18:38:50;;;;;;;2.87;2.60;;;24.20;62.40;;;;;;5032186;28;20426;-69